Time;durP1;ratioP1;P1;durP2;ratioP2;P2;SDS_P1;SDS_P2;PMS_P1;PMS_P2;Temp;Humidity;BMP_temperature;BMP_pressure;BME280_temperature;BME280_humidity;BME280_pressure;Samples;Min_cycle;Max_cycle;Signal;HPM_P1;HPM_P2
2022/05/17 00:00:25;;;;;;;6.40;2.90;;;19.10;1.00;;;;;;5069990;28;20436;-82
2022/05/17 00:02:55;;;;;;;7.37;3.13;;;19.10;1.00;;;;;;5064982;28;20428;-80
2022/05/17 00:05:25;;;;;;;6.80;2.83;;;19.10;1.00;;;;;;5056587;28;20428;-84
2022/05/17 00:07:55;;;;;;;6.40;2.70;;;19.10;1.00;;;;;;5064340;28;20397;-82
2022/05/17 00:10:26;;;;;;;7.73;3.13;;;19.10;1.00;;;;;;5062642;28;20491;-82
2022/05/17 00:12:57;;;;;;;8.57;3.27;;;19.10;1.00;;;;;;5062607;28;20590;-84
2022/05/17 00:15:25;;;;;;;9.07;3.90;;;19.10;1.00;;;;;;5059319;28;20421;-80
2022/05/17 00:17:58;;;;;;;7.10;2.90;;;19.10;1.00;;;;;;5060212;28;20417;-82
2022/05/17 00:20:26;;;;;;;7.53;2.80;;;19.10;1.00;;;;;;5073682;28;20436;-79
2022/05/17 00:22:55;;;;;;;8.17;2.97;;;19.00;1.00;;;;;;5062036;28;20484;-76
2022/05/17 00:25:25;;;;;;;7.30;3.30;;;19.00;1.00;;;;;;5054053;28;20421;-78
2022/05/17 00:27:56;;;;;;;8.90;3.40;;;19.00;1.00;;;;;;5056500;28;20421;-78
2022/05/17 00:30:25;;;;;;;7.97;2.90;;;19.00;1.00;;;;;;5062258;28;20441;-79
2022/05/17 00:32:55;;;;;;;6.93;3.23;;;18.90;1.00;;;;;;5058333;28;20416;-81
2022/05/17 00:35:25;;;;;;;7.77;3.80;;;18.90;1.00;;;;;;5060281;28;20421;-79
2022/05/17 00:37:55;;;;;;;6.50;3.13;;;18.90;1.00;;;;;;5054876;28;20416;-78
2022/05/17 00:40:24;;;;;;;8.13;3.40;;;18.70;1.00;;;;;;5058860;28;20480;-78
2022/05/17 00:42:54;;;;;;;6.47;3.00;;;18.50;1.00;;;;;;5054345;28;20452;-80
2022/05/17 00:45:23;;;;;;;8.47;3.53;;;18.20;1.00;;;;;;5054631;28;21031;-81
2022/05/17 00:48:04;;;;;;;6.40;3.37;;;18.00;1.00;;;;;;5051525;28;20469;-79
2022/05/17 00:50:46;;;;;;;7.90;3.50;;;17.80;1.00;;;;;;5060294;28;20443;-80
2022/05/17 00:53:25;;;;;;;9.00;4.00;;;17.50;1.00;;;;;;5055942;28;20448;-80
2022/05/17 00:56:08;;;;;;;6.80;3.57;;;17.40;1.00;;;;;;5060463;28;20421;-80
2022/05/17 00:58:46;;;;;;;7.07;3.50;;;17.20;1.00;;;;;;5054962;28;20432;-80
2022/05/17 01:01:25;;;;;;;5.87;3.23;;;16.90;1.00;;;;;;5060221;28;20420;-80
2022/05/17 01:03:58;;;;;;;6.20;3.33;;;16.70;1.00;;;;;;5061699;28;20538;-80
2022/05/17 01:06:28;;;;;;;6.87;3.17;;;16.60;1.00;;;;;;5061568;28;20435;-81
2022/05/17 01:08:55;;;;;;;6.47;3.03;;;16.60;1.00;;;;;;5061101;28;20409;-83
2022/05/17 01:11:25;;;;;;;5.77;3.47;;;16.50;1.00;;;;;;5055322;28;20436;-80
2022/05/17 01:16:43;;;;;;;7.30;3.60;;;16.50;1.00;;;;;;5057889;28;20413;-82
2022/05/17 01:19:13;;;;;;;7.07;3.80;;;16.50;1.00;;;;;;5053015;28;20425;-81
2022/05/17 01:21:50;;;;;;;5.00;3.40;;;16.50;1.00;;;;;;5058509;28;20425;-81
2022/05/17 01:24:22;;;;;;;5.53;3.30;;;16.60;1.00;;;;;;5057923;28;20443;-83
2022/05/17 01:27:01;;;;;;;7.10;4.13;;;16.60;1.00;;;;;;5059878;28;20443;-79
2022/05/17 01:29:43;;;;;;;12.00;3.60;;;16.70;1.00;;;;;;5059393;28;20502;-80
2022/05/17 01:32:13;;;;;;;7.10;3.30;;;16.70;1.00;;;;;;5057360;28;20482;-79
2022/05/17 01:34:42;;;;;;;7.80;3.90;;;16.70;1.00;;;;;;5059076;28;20413;-80
2022/05/17 01:37:14;;;;;;;4.97;3.60;;;16.70;1.00;;;;;;5052658;28;20421;-80
2022/05/17 01:39:44;;;;;;;8.63;3.73;;;16.80;1.00;;;;;;5061142;28;20436;-80
2022/05/17 01:42:13;;;;;;;8.27;3.77;;;16.80;1.00;;;;;;5056605;28;20444;-81
2022/05/17 01:44:43;;;;;;;4.73;3.40;;;16.70;1.00;;;;;;5055866;28;20424;-79
2022/05/17 01:47:12;;;;;;;8.23;3.70;;;16.50;1.00;;;;;;5052115;28;20428;-79
2022/05/17 01:49:41;;;;;;;4.40;3.60;;;16.40;1.00;;;;;;5057524;28;20421;-80
2022/05/17 01:52:17;;;;;;;5.50;3.87;;;16.20;1.00;;;;;;5055608;28;20460;-81
2022/05/17 01:54:43;;;;;;;9.40;4.20;;;16.00;1.00;;;;;;5059205;28;20667;-78
2022/05/17 01:57:11;;;;;;;7.50;4.23;;;15.90;1.00;;;;;;5062016;28;20459;-78
2022/05/17 01:59:41;;;;;;;8.13;3.90;;;15.80;1.00;;;;;;5060074;28;20458;-79
2022/05/17 02:02:12;;;;;;;6.17;4.00;;;15.70;1.00;;;;;;5058710;28;21161;-81
2022/05/17 02:04:43;;;;;;;6.00;4.07;;;15.70;1.00;;;;;;5062786;28;20416;-82
2022/05/17 02:07:12;;;;;;;5.60;4.07;;;15.60;1.00;;;;;;5053000;28;20841;-81
2022/05/17 02:09:41;;;;;;;6.53;5.00;;;15.60;1.00;;;;;;5055415;28;20504;-79
2022/05/17 02:12:13;;;;;;;6.43;4.20;;;15.50;1.00;;;;;;5057288;28;20475;-78
2022/05/17 02:14:42;;;;;;;7.40;4.30;;;15.50;1.00;;;;;;5056804;28;20521;-79
2022/05/17 02:17:12;;;;;;;6.03;4.57;;;15.40;1.00;;;;;;5057971;28;20441;-79
2022/05/17 02:19:41;;;;;;;7.33;5.43;;;15.30;1.00;;;;;;5060414;28;20409;-83
2022/05/17 02:22:13;;;;;;;7.60;4.57;;;15.20;1.00;;;;;;5053402;28;20456;-80
2022/05/17 02:24:42;;;;;;;7.57;5.40;;;15.20;1.00;;;;;;5053167;28;20622;-81
2022/05/17 02:27:13;;;;;;;7.33;4.93;;;15.10;1.00;;;;;;5050381;28;20460;-79
2022/05/17 02:29:42;;;;;;;6.50;4.90;;;15.00;1.00;;;;;;5060730;28;20428;-81
2022/05/17 02:32:12;;;;;;;29.87;27.67;;;14.90;1.00;;;;;;5058576;28;20438;-80
2022/05/17 02:34:42;;;;;;;6.20;5.60;;;14.90;1.00;;;;;;5058872;28;20491;-80
2022/05/17 02:37:15;;;;;;;11.73;6.60;;;14.80;1.00;;;;;;5055858;28;20448;-81
2022/05/17 02:39:42;;;;;;;7.60;5.00;;;14.80;1.00;;;;;;5063237;28;20452;-80
2022/05/17 02:42:12;;;;;;;13.37;11.37;;;14.80;1.00;;;;;;5058447;28;20459;-78
2022/05/17 02:44:42;;;;;;;7.10;6.20;;;14.70;1.00;;;;;;5062689;28;20490;-78
2022/05/17 02:47:14;;;;;;;6.73;5.30;;;14.70;1.00;;;;;;5056958;28;20474;-80
2022/05/17 02:49:45;;;;;;;6.70;5.80;;;14.70;1.00;;;;;;5061253;28;20468;-78
2022/05/17 02:52:14;;;;;;;9.43;5.90;;;14.70;1.00;;;;;;5040912;28;20460;-82
2022/05/17 02:54:42;;;;;;;7.23;6.10;;;14.60;1.00;;;;;;5056468;28;20455;-81
2022/05/17 02:57:12;;;;;;;9.13;6.80;;;14.60;1.00;;;;;;5059895;28;20415;-79
2022/05/17 02:59:43;;;;;;;6.80;6.10;;;14.60;1.00;;;;;;5051402;28;20452;-81
2022/05/17 03:02:12;;;;;;;7.33;5.73;;;14.70;1.00;;;;;;5054724;28;20450;-79
2022/05/17 03:04:41;;;;;;;9.63;7.20;;;14.70;1.00;;;;;;5054034;28;20451;-81
2022/05/17 03:07:11;;;;;;;7.57;6.77;;;14.60;1.00;;;;;;5054835;28;20421;-79
2022/05/17 03:09:45;;;;;;;8.77;5.83;;;14.70;1.00;;;;;;5051612;28;20397;-80
2022/05/17 03:12:12;;;;;;;7.80;6.60;;;14.70;1.00;;;;;;5055844;28;20431;-79
2022/05/17 03:14:42;;;;;;;9.07;5.87;;;14.70;1.00;;;;;;5041536;28;20580;-77
2022/05/17 03:17:14;;;;;;;11.70;6.80;;;14.70;1.00;;;;;;5052413;28;20549;-81
2022/05/17 03:19:42;;;;;;;7.60;6.80;;;14.70;1.00;;;;;;5059014;28;20491;-81
2022/05/17 03:22:12;;;;;;;9.37;7.83;;;14.70;1.00;;;;;;5058391;28;20450;-79
2022/05/17 03:24:43;;;;;;;7.87;7.07;;;14.80;1.00;;;;;;5057689;28;20432;-80
2022/05/17 03:27:12;;;;;;;11.07;6.90;;;14.80;1.00;;;;;;5059759;28;20436;-81
2022/05/17 03:29:41;;;;;;;8.40;6.93;;;14.80;1.00;;;;;;5058464;28;20419;-80
2022/05/17 03:32:12;;;;;;;10.30;7.40;;;14.80;1.00;;;;;;5055766;28;20627;-80
2022/05/17 03:34:41;;;;;;;11.20;7.77;;;14.80;1.00;;;;;;5057671;28;20436;-83
2022/05/17 03:37:11;;;;;;;11.63;7.33;;;14.80;1.00;;;;;;5058681;28;20470;-80
2022/05/17 03:39:43;;;;;;;8.70;7.30;;;14.80;1.00;;;;;;5059017;28;20482;-79
2022/05/17 03:42:13;;;;;;;10.17;8.00;;;14.70;1.00;;;;;;5052491;28;20473;-80
2022/05/17 03:44:42;;;;;;;10.50;8.30;;;14.70;1.00;;;;;;5056750;28;20434;-81
2022/05/17 03:47:12;;;;;;;10.60;8.00;;;14.70;1.00;;;;;;5052090;28;20407;-79
2022/05/17 03:49:43;;;;;;;8.67;7.50;;;14.60;1.00;;;;;;5056895;28;20623;-78
2022/05/17 03:52:12;;;;;;;10.73;8.30;;;14.60;1.00;;;;;;5059214;28;20428;-78
2022/05/17 03:54:44;;;;;;;9.70;7.40;;;14.60;1.00;;;;;;5058744;28;20489;-80
2022/05/17 03:57:12;;;;;;;9.50;8.03;;;14.60;1.00;;;;;;5065258;28;20420;-79
2022/05/17 03:59:42;;;;;;;11.87;8.00;;;14.50;1.00;;;;;;5059784;28;20423;-79
2022/05/17 04:02:12;;;;;;;11.77;9.07;;;14.50;1.00;;;;;;5049498;28;20440;-78
2022/05/17 04:04:42;;;;;;;8.93;8.03;;;14.50;1.00;;;;;;5055354;28;20432;-79
2022/05/17 04:07:12;;;;;;;9.37;8.47;;;14.50;1.00;;;;;;5051827;28;20528;-82
2022/05/17 04:09:42;;;;;;;14.07;9.67;;;14.50;1.00;;;;;;5060693;28;20508;-78
2022/05/17 04:12:14;;;;;;;11.40;8.40;;;14.60;1.00;;;;;;5055493;28;20486;-79
2022/05/17 04:14:42;;;;;;;9.03;7.80;;;14.60;1.00;;;;;;5059918;28;20494;-79
2022/05/17 04:17:12;;;;;;;9.80;8.63;;;14.60;1.00;;;;;;5056225;28;20439;-79
2022/05/17 04:19:42;;;;;;;8.67;7.87;;;14.60;1.00;;;;;;5058708;28;20444;-81
2022/05/17 04:22:12;;;;;;;9.80;8.20;;;14.60;1.00;;;;;;5060444;28;20569;-79
2022/05/17 04:24:42;;;;;;;8.97;7.57;;;14.50;1.00;;;;;;5060136;28;20485;-78
2022/05/17 04:27:24;;;;;;;9.70;7.90;;;14.50;1.00;;;;;;5057273;28;20438;-81
2022/05/17 04:29:53;;;;;;;10.17;6.70;;;14.50;1.00;;;;;;5058602;28;20435;-79
2022/05/17 04:32:22;;;;;;;7.90;7.00;;;14.40;1.00;;;;;;5062798;28;20436;-81
2022/05/17 04:34:55;;;;;;;13.20;9.40;;;14.30;1.00;;;;;;5063469;28;20633;-79
2022/05/17 04:37:22;;;;;;;8.03;6.43;;;14.20;1.00;;;;;;5056686;28;20623;-79
2022/05/17 04:39:52;;;;;;;10.03;7.80;;;14.10;1.00;;;;;;5056643;28;20431;-77
2022/05/17 04:42:23;;;;;;;7.83;5.70;;;14.00;1.00;;;;;;5058349;28;20434;-76
2022/05/17 04:44:52;;;;;;;7.97;7.17;;;14.00;1.00;;;;;;5055615;28;20466;-80
2022/05/17 04:47:22;;;;;;;7.57;6.93;;;14.00;1.00;;;;;;5056369;28;20419;-77
2022/05/17 04:49:55;;;;;;;7.50;6.90;;;14.00;1.00;;;;;;5039963;28;20438;-81
2022/05/17 04:52:33;;;;;;;8.80;7.90;;;14.00;1.00;;;;;;5043386;28;20424;-83
2022/05/17 04:55:02;;;;;;;8.30;7.10;;;14.00;1.00;;;;;;5056035;28;20495;-78
2022/05/17 04:57:35;;;;;;;10.77;7.77;;;14.00;1.00;;;;;;5057155;28;20478;-77
2022/05/17 05:00:11;;;;;;;11.93;7.53;;;14.00;1.00;;;;;;5054740;28;20592;-80
2022/05/17 05:02:43;;;;;;;9.00;8.13;;;14.10;1.00;;;;;;5050607;28;20446;-78
2022/05/17 05:05:13;;;;;;;8.63;7.77;;;14.00;1.00;;;;;;5059481;28;20423;-81
2022/05/17 05:07:52;;;;;;;12.00;8.27;;;14.00;1.00;;;;;;5054149;28;20449;-76
2022/05/17 05:10:23;;;;;;;8.47;7.13;;;14.00;1.00;;;;;;5054156;28;20465;-76
2022/05/17 05:12:54;;;;;;;9.37;7.77;;;14.00;1.00;;;;;;5057515;28;20448;-78
2022/05/17 05:15:23;;;;;;;7.87;7.07;;;14.00;1.00;;;;;;5053577;28;20427;-77
2022/05/17 05:17:52;;;;;;;9.80;8.80;;;14.00;1.00;;;;;;5064213;28;20482;-79
2022/05/17 05:20:22;;;;;;;10.50;8.20;;;14.00;1.00;;;;;;5056581;28;20429;-81
2022/05/17 05:22:52;;;;;;;9.63;8.63;;;14.00;1.00;;;;;;5053351;28;20549;-76
2022/05/17 05:25:25;;;;;;;8.80;7.33;;;14.00;1.00;;;;;;5054127;28;20420;-76
2022/05/17 05:27:54;;;;;;;10.80;8.80;;;14.00;1.00;;;;;;5061504;28;20452;-80
2022/05/17 05:30:31;;;;;;;10.27;8.70;;;13.90;1.00;;;;;;5059238;28;20422;-77
2022/05/17 05:33:02;;;;;;;10.00;9.10;;;14.00;1.00;;;;;;5063271;28;20437;-76
2022/05/17 05:35:33;;;;;;;10.40;9.30;;;14.00;1.00;;;;;;5061940;28;20499;-76
2022/05/17 05:38:04;;;;;;;9.30;8.10;;;14.00;1.00;;;;;;5058782;28;20423;-81
2022/05/17 05:40:32;;;;;;;9.40;8.27;;;14.10;1.00;;;;;;5056882;28;20456;-75
2022/05/17 05:43:04;;;;;;;10.20;8.77;;;14.10;1.00;;;;;;5060269;28;20433;-78
2022/05/17 05:45:35;;;;;;;28.23;24.70;;;14.10;1.00;;;;;;5062935;28;20414;-77
2022/05/17 05:48:02;;;;;;;10.50;9.40;;;14.00;1.00;;;;;;5058897;28;20431;-79
2022/05/17 05:50:32;;;;;;;11.50;9.57;;;14.00;1.00;;;;;;5061442;28;20420;-76
2022/05/17 05:53:05;;;;;;;16.83;11.63;;;14.00;1.00;;;;;;5064141;28;20445;-75
2022/05/17 05:55:34;;;;;;;10.27;9.37;;;14.00;1.00;;;;;;5054792;28;21170;-78
2022/05/17 05:58:04;;;;;;;10.80;9.47;;;13.90;1.00;;;;;;5053030;28;20418;-79
2022/05/17 06:00:35;;;;;;;10.17;9.00;;;14.00;1.00;;;;;;5057242;28;20478;-80
2022/05/17 06:03:03;;;;;;;10.70;8.70;;;14.00;1.00;;;;;;5065488;28;20521;-81
2022/05/17 06:05:34;;;;;;;9.87;8.50;;;14.00;1.00;;;;;;5064883;28;20472;-79
2022/05/17 06:08:02;;;;;;;12.33;9.87;;;14.00;1.00;;;;;;5060652;28;20542;-79
2022/05/17 06:10:32;;;;;;;10.40;8.70;;;14.00;1.00;;;;;;5062972;28;21312;-80
2022/05/17 06:13:04;;;;;;;12.97;11.73;;;14.10;1.00;;;;;;5063067;28;20632;-76
2022/05/17 06:15:33;;;;;;;12.73;11.50;;;14.20;1.00;;;;;;5058726;28;20417;-82
2022/05/17 06:18:03;;;;;;;12.77;10.37;;;14.30;1.00;;;;;;5055783;28;20426;-79
2022/05/17 06:20:33;;;;;;;10.73;9.63;;;14.40;1.00;;;;;;5058357;28;20430;-79
2022/05/17 06:23:03;;;;;;;13.43;11.97;;;14.40;1.00;;;;;;5061350;28;20440;-77
2022/05/17 06:25:36;;;;;;;11.37;10.20;;;14.40;1.00;;;;;;5060856;28;20406;-81
2022/05/17 06:28:09;;;;;;;16.83;14.47;;;14.50;1.00;;;;;;5057548;28;20446;-78
2022/05/17 06:30:43;;;;;;;15.40;11.23;;;14.50;1.00;;;;;;5059700;28;20415;-76
2022/05/17 06:33:15;;;;;;;13.67;10.53;;;14.50;1.00;;;;;;5054235;28;20446;-77
2022/05/17 06:35:44;;;;;;;11.47;10.30;;;14.50;1.00;;;;;;5059986;28;20498;-76
2022/05/17 06:38:13;;;;;;;11.57;9.53;;;14.50;1.00;;;;;;5056495;28;20427;-78
2022/05/17 06:40:43;;;;;;;15.97;12.73;;;14.50;1.00;;;;;;5062851;28;20412;-80
2022/05/17 06:43:14;;;;;;;14.47;10.87;;;14.50;1.00;;;;;;5057431;28;20439;-80
2022/05/17 06:45:45;;;;;;;12.23;11.03;;;14.60;1.00;;;;;;5053410;28;20416;-79
2022/05/17 06:48:13;;;;;;;11.87;9.50;;;14.70;1.00;;;;;;5053471;28;20491;-80
2022/05/17 06:50:43;;;;;;;12.80;11.50;;;14.70;1.00;;;;;;5061716;28;20435;-78
2022/05/17 06:53:13;;;;;;;11.80;10.70;;;14.70;1.00;;;;;;5055350;28;21367;-78
2022/05/17 06:55:43;;;;;;;11.30;10.03;;;14.80;1.00;;;;;;5056700;28;20416;-81
2022/05/17 06:58:14;;;;;;;12.80;9.87;;;14.80;1.00;;;;;;5057586;28;20426;-79
2022/05/17 07:00:42;;;;;;;11.40;10.10;;;14.80;1.00;;;;;;5055539;28;20570;-77
2022/05/17 07:03:14;;;;;;;11.97;10.73;;;14.80;1.00;;;;;;5059125;28;20463;-78
2022/05/17 07:05:43;;;;;;;14.83;10.03;;;14.90;1.00;;;;;;5062316;28;20458;-77
2022/05/17 07:08:13;;;;;;;13.33;10.83;;;14.90;1.00;;;;;;5059842;28;20424;-78
2022/05/17 07:13:33;;;;;;;12.37;9.37;;;14.90;1.00;;;;;;5059991;28;20518;-79
2022/05/17 07:16:03;;;;;;;12.87;9.17;;;15.00;1.00;;;;;;5062360;28;20436;-78
2022/05/17 07:18:34;;;;;;;9.20;8.30;;;15.00;1.00;;;;;;5062200;28;20427;-78
2022/05/17 07:21:03;;;;;;;10.03;9.03;;;14.90;1.00;;;;;;5065669;28;20408;-77
2022/05/17 07:23:35;;;;;;;10.60;9.10;;;14.90;1.00;;;;;;5064780;28;20607;-80
2022/05/17 07:26:04;;;;;;;12.57;9.70;;;14.90;1.00;;;;;;5054777;28;20523;-79
2022/05/17 07:28:44;;;;;;;10.73;9.63;;;15.00;1.00;;;;;;5064293;28;20466;-80
2022/05/17 07:31:13;;;;;;;13.10;10.23;;;15.20;1.00;;;;;;5061130;28;20439;-79
2022/05/17 07:33:44;;;;;;;12.27;10.23;;;15.40;1.00;;;;;;5062126;28;20428;-78
2022/05/17 07:36:13;;;;;;;11.43;10.27;;;15.60;1.00;;;;;;5061246;28;21744;-79
2022/05/17 07:38:44;;;;;;;11.87;10.53;;;15.90;1.00;;;;;;5060884;28;20413;-78
2022/05/17 07:41:14;;;;;;;11.13;10.10;;;16.10;1.00;;;;;;5061719;28;20471;-78
2022/05/17 07:43:44;;;;;;;10.53;9.43;;;16.30;1.00;;;;;;5057905;28;20427;-76
2022/05/17 07:46:13;;;;;;;10.40;8.30;;;16.50;1.00;;;;;;5056338;28;20401;-79
2022/05/17 07:48:43;;;;;;;13.40;10.20;;;16.80;1.00;;;;;;5058085;28;20446;-78
2022/05/17 07:51:12;;;;;;;9.90;8.87;;;17.20;1.00;;;;;;5057926;28;20424;-79
2022/05/17 07:53:43;;;;;;;12.13;8.00;;;17.40;1.00;;;;;;5060146;28;20436;-79
2022/05/17 07:56:16;;;;;;;10.67;8.63;;;17.70;1.00;;;;;;5056637;28;20463;-78
2022/05/17 07:58:45;;;;;;;8.00;7.20;;;17.70;1.00;;;;;;5058274;28;20652;-78
2022/05/17 08:01:13;;;;;;;9.20;7.73;;;17.80;1.00;;;;;;5060627;28;20405;-79
2022/05/17 08:03:43;;;;;;;10.47;9.10;;;18.00;1.00;;;;;;5055293;28;20459;-77
2022/05/17 08:06:13;;;;;;;9.03;8.10;;;18.10;1.00;;;;;;5052642;28;20424;-79
2022/05/17 08:08:43;;;;;;;9.40;8.50;;;18.30;1.00;;;;;;5058035;28;20444;-77
2022/05/17 08:11:13;;;;;;;11.30;8.43;;;18.50;1.00;;;;;;5061255;28;20487;-78
2022/05/17 08:13:44;;;;;;;9.63;8.43;;;18.50;1.00;;;;;;5058541;28;20437;-78
2022/05/17 08:16:13;;;;;;;9.57;7.63;;;18.60;1.00;;;;;;5060727;28;20424;-78
2022/05/17 08:18:43;;;;;;;8.80;7.83;;;18.60;1.00;;;;;;5058836;28;20479;-79
2022/05/17 08:21:12;;;;;;;11.80;8.83;;;18.70;1.00;;;;;;5053639;28;20414;-79
2022/05/17 08:23:43;;;;;;;11.60;9.07;;;18.80;1.00;;;;;;5055961;28;20544;-78
2022/05/17 08:28:56;;;;;;;19.03;8.63;;;19.00;1.00;;;;;;5027343;28;20539;-79
2022/05/17 08:31:24;;;;;;;11.27;10.07;;;19.20;1.00;;;;;;5056892;28;20442;-76
2022/05/17 08:33:53;;;;;;;12.87;9.60;;;19.20;1.00;;;;;;5059475;28;20478;-76
2022/05/17 08:36:22;;;;;;;10.63;9.43;;;19.30;1.00;;;;;;5060497;28;20416;-78
2022/05/17 08:38:53;;;;;;;10.10;8.40;;;19.50;1.00;;;;;;5057999;28;20451;-78
2022/05/17 08:41:26;;;;;;;12.43;10.57;;;19.80;1.00;;;;;;5061279;28;20452;-78
2022/05/17 08:44:03;;;;;;;12.10;10.23;;;19.90;1.00;;;;;;5060558;28;20431;-78
2022/05/17 08:47:05;;;;;;;12.23;9.77;;;20.10;1.00;;;;;;5062855;28;20477;-77
2022/05/17 08:49:45;;;;;;;11.67;10.17;;;20.30;1.00;;;;;;5058007;28;20427;-78
2022/05/17 08:52:16;;;;;;;11.50;10.30;;;20.50;1.00;;;;;;5060027;28;20416;-78
2022/05/17 08:54:56;;;;;;;12.10;10.30;;;20.70;1.00;;;;;;5059929;28;20440;-79
2022/05/17 08:57:32;;;;;;;16.50;10.67;;;20.80;1.00;;;;;;5058516;28;20605;-79
2022/05/17 09:00:21;;;;;;;10.80;9.80;;;20.90;1.00;;;;;;5060509;28;20416;-78
2022/05/17 09:03:03;;;;;;;11.87;8.80;;;21.00;1.00;;;;;;5060777;28;20424;-78
2022/05/17 09:05:36;;;;;;;11.93;9.87;;;21.20;1.00;;;;;;5046680;28;20437;-79
2022/05/17 09:08:15;;;;;;;9.83;8.83;;;21.30;1.00;;;;;;5062931;28;20444;-78
2022/05/17 09:10:53;;;;;;;10.90;9.90;;;21.30;1.00;;;;;;5059475;28;20479;-78
2022/05/17 09:13:31;;;;;;;15.87;9.60;;;21.40;1.00;;;;;;5058474;28;20469;-80
2022/05/17 09:16:05;;;;;;;11.33;10.17;;;21.50;1.00;;;;;;5060228;28;20445;-78
2022/05/17 09:18:33;;;;;;;11.07;9.97;;;21.70;1.00;;;;;;5062249;28;20401;-79
2022/05/17 09:21:05;;;;;;;12.53;9.90;;;21.90;1.00;;;;;;5061091;28;20455;-78
2022/05/17 09:23:33;;;;;;;13.23;10.70;;;21.90;1.00;;;;;;5062205;28;20493;-78
2022/05/17 09:26:13;;;;;;;14.73;10.63;;;22.00;1.00;;;;;;5056090;28;20442;-76
2022/05/17 09:29:03;;;;;;;20.50;10.37;;;21.90;1.00;;;;;;5052688;28;20417;-80
2022/05/17 09:31:36;;;;;;;12.57;9.83;;;22.00;1.00;;;;;;5060055;28;20423;-80
2022/05/17 09:34:13;;;;;;;11.40;9.23;;;22.20;1.00;;;;;;5054240;28;20464;-78
2022/05/17 09:36:53;;;;;;;10.07;9.13;;;22.60;1.00;;;;;;5051182;28;20460;-79
2022/05/17 09:39:32;;;;;;;9.97;9.00;;;23.60;1.00;;;;;;5053677;28;20424;-78
2022/05/17 09:42:06;;;;;;;13.67;9.60;;;24.70;1.00;;;;;;5053288;28;20439;-77
2022/05/17 09:44:45;;;;;;;9.93;8.93;;;24.80;1.00;;;;;;5055242;28;20416;-78
2022/05/17 09:47:32;;;;;;;13.63;12.20;;;24.70;1.00;;;;;;5049648;28;20643;-79
2022/05/17 09:53:05;;;;;;;8.77;8.07;;;25.00;1.00;;;;;;5051550;28;20465;-78
2022/05/17 09:55:35;;;;;;;12.80;9.60;;;24.90;1.00;;;;;;5058345;28;20428;-78
2022/05/17 09:58:05;;;;;;;11.43;8.03;;;24.90;1.00;;;;;;5050936;28;20432;-79
2022/05/17 10:00:43;;;;;;;8.23;7.43;;;25.00;1.00;;;;;;5058298;28;20601;-78
2022/05/17 10:03:34;;;;;;;9.43;8.30;;;24.90;1.00;;;;;;5059262;28;20444;-78
2022/05/17 10:06:04;;;;;;;7.80;7.03;;;24.80;1.00;;;;;;5056717;28;20428;-79
2022/05/17 10:08:43;;;;;;;9.87;8.23;;;24.70;1.00;;;;;;5058400;28;20513;-80
2022/05/17 10:11:25;;;;;;;14.53;13.10;;;24.70;1.00;;;;;;5055549;28;20444;-79
2022/05/17 10:14:15;;;;;;;10.87;9.77;;;24.60;1.00;;;;;;5059828;28;20421;-77
2022/05/17 10:16:52;;;;;;;11.87;10.67;;;24.60;1.00;;;;;;5059399;28;20417;-79
2022/05/17 10:19:43;;;;;;;9.73;7.07;;;24.50;1.00;;;;;;5058194;28;20447;-77
2022/05/17 10:22:25;;;;;;;7.47;6.57;;;24.60;1.00;;;;;;5057088;28;20453;-76
2022/05/17 10:25:03;;;;;;;7.13;6.43;;;24.70;1.00;;;;;;5061529;28;20409;-78
2022/05/17 10:27:43;;;;;;;7.13;6.40;;;25.00;1.00;;;;;;5063127;28;20522;-78
2022/05/17 10:30:15;;;;;;;6.60;6.00;;;25.40;1.00;;;;;;5058004;28;20486;-81
2022/05/17 10:32:52;;;;;;;8.60;6.10;;;25.80;1.00;;;;;;5049905;28;20464;-78
2022/05/17 10:35:33;;;;;;;6.70;5.13;;;26.20;1.00;;;;;;5054480;28;20456;-79
2022/05/17 10:38:05;;;;;;;7.23;6.10;;;26.20;1.00;;;;;;5050986;28;20514;-80
2022/05/17 10:40:35;;;;;;;6.20;5.67;;;26.20;1.00;;;;;;5058119;28;20428;-77
2022/05/17 10:43:05;;;;;;;9.00;8.07;;;26.10;1.00;;;;;;5052780;28;20499;-75
2022/05/17 10:45:35;;;;;;;7.33;6.63;;;26.00;1.00;;;;;;5053093;28;20426;-79
2022/05/17 10:48:15;;;;;;;7.77;7.07;;;26.00;1.00;;;;;;5052717;28;20959;-79
2022/05/17 10:50:57;;;;;;;7.83;6.00;;;26.00;1.00;;;;;;5053008;28;20527;-79
2022/05/17 10:53:52;;;;;;;7.60;6.90;;;25.90;1.00;;;;;;5054139;28;20506;-79
2022/05/17 10:56:33;;;;;;;8.40;7.20;;;25.80;1.00;;;;;;5055598;28;21018;-79
2022/05/17 10:59:13;;;;;;;7.07;6.43;;;25.50;1.00;;;;;;5054230;28;21007;-79
2022/05/17 11:01:55;;;;;;;7.00;5.77;;;25.10;1.00;;;;;;5050632;28;20540;-78
2022/05/17 11:04:57;;;;;;;6.43;5.60;;;24.90;1.00;;;;;;5041116;28;21218;-79
2022/05/17 11:07:43;;;;;;;7.30;6.70;;;24.80;1.00;;;;;;5039347;28;20452;-79
2022/05/17 11:10:33;;;;;;;6.43;5.53;;;24.70;1.00;;;;;;5059173;28;20416;-78
2022/05/17 11:13:22;;;;;;;6.70;6.00;;;24.60;1.00;;;;;;5055664;28;20451;-78
2022/05/17 11:15:56;;;;;;;7.80;5.87;;;24.70;1.00;;;;;;5050710;28;20467;-76
2022/05/17 11:18:42;;;;;;;14.70;7.03;;;24.50;1.00;;;;;;5058161;28;20405;-79
2022/05/17 11:21:23;;;;;;;12.43;9.17;;;24.60;1.00;;;;;;5054427;28;20502;-77
2022/05/17 11:24:03;;;;;;;8.40;6.97;;;24.50;1.00;;;;;;5052368;28;21095;-75
2022/05/17 11:27:13;;;;;;;6.80;6.07;;;24.50;1.00;;;;;;5056095;28;20468;-78
2022/05/17 11:30:26;;;;;;;7.00;6.13;;;24.40;1.00;;;;;;5058528;28;20471;-75
2022/05/17 11:33:33;;;;;;;8.77;5.93;;;24.30;1.00;;;;;;5058937;28;20424;-78
2022/05/17 11:36:05;;;;;;;8.70;6.20;;;24.30;1.00;;;;;;5056957;28;20471;-77
2022/05/17 11:38:55;;;;;;;7.37;6.77;;;24.10;1.00;;;;;;5048561;28;20405;-79
2022/05/17 11:41:43;;;;;;;6.87;6.23;;;24.40;1.00;;;;;;5054869;28;20487;-79
2022/05/17 11:44:26;;;;;;;8.23;6.57;;;24.80;1.00;;;;;;5059175;28;20436;-77
2022/05/17 11:46:56;;;;;;;12.53;9.87;;;25.40;1.00;;;;;;5052894;28;20851;-78
2022/05/17 11:52:33;;;;;;;6.60;5.73;;;26.50;1.00;;;;;;5052036;28;20551;-78
2022/05/17 11:55:06;;;;;;;7.87;6.60;;;26.90;1.00;;;;;;5054089;28;20389;-78
2022/05/17 11:58:06;;;;;;;8.10;5.73;;;27.00;1.00;;;;;;5054814;28;20450;-76
2022/05/17 12:00:54;;;;;;;8.17;6.80;;;27.00;1.00;;;;;;5056652;28;20518;-76
2022/05/17 12:03:53;;;;;;;6.97;6.33;;;27.20;1.00;;;;;;5054135;28;20413;-77
2022/05/17 12:07:25;;;;;;;7.27;6.33;;;27.60;1.00;;;;;;5059085;28;20424;-76
2022/05/17 12:10:00;;;;;;;7.13;6.43;;;27.70;1.00;;;;;;5035602;28;21659;-81
2022/05/17 12:13:03;;;;;;;7.40;6.67;;;28.60;1.00;;;;;;5045303;28;20460;-79
2022/05/17 12:15:43;;;;;;;11.07;6.37;;;30.10;1.00;;;;;;5046186;28;20460;-78
2022/05/17 12:18:31;;;;;;;6.40;5.53;;;31.60;1.00;;;;;;5056722;28;20449;-79
2022/05/17 12:21:24;;;;;;;7.23;6.53;;;32.80;1.00;;;;;;5165114;22;20551;-77
2022/05/17 12:23:57;;;;;;;6.67;5.90;;;32.80;1.00;;;;;;5045231;28;20454;-77
2022/05/17 12:26:36;;;;;;;8.00;6.70;;;31.60;1.00;;;;;;5053921;28;20448;-79
2022/05/17 12:31:47;;;;;;;8.57;6.67;;;32.10;1.00;;;;;;5056229;28;20536;-78
2022/05/17 12:34:25;;;;;;;7.20;6.27;;;32.10;1.00;;;;;;5052646;28;20422;-78
2022/05/17 12:37:06;;;;;;;6.30;5.70;;;31.40;1.00;;;;;;5053085;28;20448;-76
2022/05/17 12:45:16;;;;;;;9.60;6.73;;;29.20;1.00;;;;;;5051685;28;20467;-77
2022/05/17 12:47:45;;;;;;;8.87;6.50;;;29.20;1.00;;;;;;5051820;28;20455;-80
2022/05/17 12:50:19;;;;;;;6.47;5.80;;;29.10;1.00;;;;;;5052822;28;20554;-79
2022/05/17 12:55:34;;;;;;;6.80;4.90;;;28.80;1.00;;;;;;5049090;28;21615;-78
2022/05/17 12:58:14;;;;;;;6.07;4.67;;;29.00;1.00;;;;;;5053181;28;20448;-77
2022/05/17 13:00:42;;;;;;;6.10;5.00;;;29.80;1.00;;;;;;5054385;28;20555;-77
2022/05/17 13:03:18;;;;;;;9.57;5.40;;;30.60;1.00;;;;;;5052261;28;20429;-77
2022/05/17 13:05:48;;;;;;;9.70;5.77;;;31.10;1.00;;;;;;5061116;28;20433;-78
2022/05/17 13:08:22;;;;;;;6.40;4.73;;;31.60;1.00;;;;;;5054088;28;20441;-78
2022/05/17 13:11:03;;;;;;;6.90;5.50;;;31.50;1.00;;;;;;5052595;28;20491;-80
2022/05/17 13:13:36;;;;;;;11.20;5.30;;;30.90;1.00;;;;;;5054347;28;20424;-77
2022/05/17 13:16:13;;;;;;;7.50;5.13;;;30.80;1.00;;;;;;5046187;28;20520;-77
2022/05/17 13:18:55;;;;;;;8.00;5.30;;;31.10;1.00;;;;;;5050565;28;20447;-81
2022/05/17 13:21:35;;;;;;;7.00;5.63;;;30.90;1.00;;;;;;5056558;28;20429;-80
2022/05/17 13:24:06;;;;;;;5.87;5.33;;;30.60;1.00;;;;;;5060160;28;20432;-78
2022/05/17 13:26:37;;;;;;;6.40;5.23;;;30.10;1.00;;;;;;5051525;28;20464;-77
2022/05/17 13:29:27;;;;;;;6.73;6.03;;;29.40;1.00;;;;;;5059193;28;20448;-76
2022/05/17 13:32:03;;;;;;;9.37;4.80;;;29.20;1.00;;;;;;5053506;28;20473;-78
2022/05/17 13:34:45;;;;;;;10.30;5.33;;;29.40;1.00;;;;;;5061870;28;20529;-78
2022/05/17 13:37:25;;;;;;;11.97;5.87;;;29.60;1.00;;;;;;5056273;28;20441;-79
2022/05/17 13:39:56;;;;;;;6.27;4.90;;;29.50;1.00;;;;;;5056144;28;20625;-76
2022/05/17 13:42:32;;;;;;;6.57;5.10;;;29.40;1.00;;;;;;5054435;28;20438;-77
2022/05/17 13:45:06;;;;;;;7.57;4.93;;;29.30;1.00;;;;;;5053528;28;20504;-75
2022/05/17 13:47:43;;;;;;;11.73;6.80;;;29.70;1.00;;;;;;5058206;28;20435;-78
2022/05/17 13:50:22;;;;;;;8.47;6.03;;;30.40;1.00;;;;;;5059343;28;20486;-76